BE1044 / G-FLBD 7700 Squawk Report (12th of June, 2018)

Aircraft DH8D Reg No. G-FLBD Age N/A
Model DHC-8 Turboprop engines 2 First flight N/A
Registered 31-10-10 Rollout N/A Delivered 01-08-09
Construction No. 4259 Line No. N/A Series Q-402
ADSHEX 40610E Airline name FlyBE Owner N/A
Airfield based Exeter~Devon~G First tracked 2011-04-01 15:33:04

Flight history for G-FLBD

Route Flight No Date Playback
Dusseldorf (DUS) - Birmingham (BHX) BE7048 2018-09-19 19:42:00
Birmingham (BHX) - Edinburgh (EDI) BE842 2018-09-19 16:51:00
Dusseldorf (DUS) - Leeds Bradford (LBA) BE1494 2018-09-19 13:48:00
Birmingham (BHX) - Dusseldorf (DUS) BE7043 2018-09-19 10:29:00
Dusseldorf (DUS) - Birmingham (BHX) BE7042 2018-09-19 07:20:00
City (LCY) - Dusseldorf (DUS) BE1409 2018-09-18 19:28:00
Dusseldorf (DUS) - City (LCY) BE1408 2018-09-18 18:34:00
City (LCY) - Dusseldorf (DUS) BE1405 2018-09-18 16:27:00
Dusseldorf (DUS) - City (LCY) BE1404 2018-09-18 14:15:00
City (LCY) - Dusseldorf (DUS) BE1401 2018-09-18 12:14:00
Dusseldorf (DUS) - City (LCY) BE1400 2018-09-18 07:17:00
Birmingham (BHX) - Dusseldorf (DUS) BE7049 2018-09-17 20:04:00
Dusseldorf (DUS) - Birmingham (BHX) BE7048 2018-09-17 18:03:00
Leeds Bradford (LBA) - Dusseldorf (DUS) BE1495 2018-09-17 15:58:00
Dusseldorf (DUS) - Leeds Bradford (LBA) BE1494 2018-09-17 13:05:00
Birmingham (BHX) - Dusseldorf (DUS) BE7043 2018-09-17 11:42:00
Dusseldorf (DUS) - Birmingham (BHX) BE7042 2018-09-17 07:15:00
Birmingham (BHX) - Dusseldorf (DUS) BE7049 2018-09-16 20:03:00
Dusseldorf (DUS) - Birmingham (BHX) BE7048 2018-09-16 17:50:00
Leeds Bradford (LBA) - Dusseldorf (DUS) BE1495 2018-09-16 15:23:00
Time Lat Lon Altitude Heading Speed Vertical Rate
2018-06-12 18:34:48 GMT 53.385315 -2.575728 2,475 196 264 -720
2018-06-12 18:34:48 GMT 53.385315 -2.575728 3,975 196 264 -720
2018-06-12 18:34:34 GMT 53.393787 -2.579606 4,250 196 264 -720
2018-06-12 18:34:28 GMT 53.401890 -2.583322 4,550 196 264 -720
2018-06-12 18:34:16 GMT 53.417297 -2.592612 4,800 196 264 -720
2018-06-12 18:34:05 GMT 53.429493 -2.597701 4,850 196 264 -720
2018-06-12 18:33:47 GMT 53.442806 -2.596489 4,850 196 264 -720
2018-06-12 18:33:43 GMT 53.447880 -2.596005 4,875 196 264 -720
2018-06-12 18:33:32 GMT 53.460499 -2.592370 4,900 196 264 -720
2018-06-12 18:32:15 GMT 53.534687 -2.555556 6,450 196 264 -720
2018-06-12 18:31:53 GMT 53.560490 -2.542907 7,050 196 245 -1560
2018-06-12 18:31:38 GMT 53.576904 -2.535549 7,325 194 275 -2040
2018-06-12 18:31:28 GMT 53.587788 -2.531413 7,625 188 269 -480
2018-06-12 18:31:17 GMT 53.600822 -2.528488 7,850 181 242 -720
2018-06-12 18:31:07 GMT 53.612030 -2.528028 7,975 180 259 -780
2018-06-12 18:30:56 GMT 53.625229 -2.527661 8,175 182 278 -480
2018-06-12 18:30:45 GMT 53.639412 -2.526637 8,350 178 269 -1800
2018-06-12 18:30:35 GMT 53.651894 -2.527033 8,550 182 265 -1560
2018-06-12 18:30:24 GMT 53.665379 -2.526059 8,700 177 257 -600
2018-06-12 18:30:14 GMT 53.677292 -2.527000 8,875 173 282 -960
2018-06-12 18:30:03 GMT 53.691784 -2.529863 9,025 172 254 -780
2018-06-12 18:29:52 GMT 53.704628 -2.532747 9,250 172 288 -660
2018-06-12 18:29:41 GMT 53.719112 -2.536418 9,500 172 288 -1560
2018-06-12 18:29:30 GMT 53.733685 -2.539560 9,650 171 293 -1320
2018-06-12 18:29:20 GMT 53.747120 -2.543073 9,925 167 284 -600
2018-06-12 18:29:08 GMT 53.762581 -2.548724 9,975 171 299 -1020
2018-06-12 18:28:58 GMT 53.776314 -2.551989 10,175 160 291 -960
2018-06-12 18:28:48 GMT 53.789005 -2.559688 10,300 160 286 -600
2018-06-12 18:28:36 GMT 53.804054 -2.567244 10,475 161 298 -3120
2018-06-12 18:28:22 GMT 53.822414 -2.577639 10,700 163 293 -1800
2018-06-12 18:28:11 GMT 53.836716 -2.584343 10,925 163 319 420
2018-06-12 18:27:59 GMT 53.853577 -2.593032 11,175 163 309 -1020
2018-06-12 18:27:49 GMT 53.866474 -2.599286 11,450 162 354 -2220
2018-06-12 18:27:39 GMT 53.882061 -2.607855 11,625 162 330 -1200
2018-06-12 18:27:28 GMT 53.898140 -2.616270 12,075 162 310 -1320
2018-06-12 18:27:16 GMT 53.915798 -2.624937 12,375 160 342 -1200
2018-06-12 18:27:02 GMT 53.936752 -2.637199 12,875 161 322 -1320
2018-06-12 18:26:52 GMT 53.951248 -2.644935 13,100 161 312 -1560
2018-06-12 18:26:40 GMT 53.968475 -2.655446 13,425 151 336 -4320
2018-06-12 18:26:30 GMT 53.982342 -2.668119 13,675 150 342 2100
2018-06-12 18:26:19 GMT 53.997604 -2.682525 14,100 153 293 -1380
2018-06-12 18:26:09 GMT 54.009724 -2.692880 14,300 151 363 -2580
2018-06-12 18:25:59 GMT 54.024490 -2.706533 14,675 152 339 0
2018-06-12 18:25:47 GMT 54.040413 -2.721238 15,000 152 346 -2100
2018-06-12 18:25:37 GMT 54.054562 -2.733230 15,325 150 351 -1500
2018-06-12 18:25:26 GMT 54.070076 -2.748345 15,700 151 329 -2100
2018-06-12 18:25:13 GMT 54.088482 -2.766529 16,025 152 338 -3060
2018-06-12 18:25:03 GMT 54.102348 -2.779036 16,325 152 340 -1620
2018-06-12 18:24:53 GMT 54.117512 -2.791506 16,650 149 372 -420
2018-06-12 18:24:43 GMT 54.131008 -2.803434 16,875 147 392 -360
2018-06-12 18:24:32 GMT 54.147915 -2.821635 17,025 151 369 0
2018-06-12 18:24:21 GMT 54.164433 -2.837788 17,025 150 342 -4500
2018-06-12 18:24:11 GMT 54.178928 -2.851134 17,050 149 384 1320
2018-06-12 18:23:59 GMT 54.197392 -2.869424 17,150 150 350 1680
2018-06-12 18:23:46 GMT 54.216213 -2.888209 17,425 151 352 -1260
2018-06-12 18:23:35 GMT 54.232944 -2.904078 17,750 149 344 -1320
2018-06-12 18:23:23 GMT 54.249462 -2.920610 18,000 151 388 -2040
2018-06-12 18:23:12 GMT 54.266487 -2.937117 18,350 150 343 -1020
2018-06-12 18:23:01 GMT 54.283138 -2.953543 18,750 149 359 -2760
2018-06-12 18:22:49 GMT 54.299717 -2.969828 19,075 149 385 -21960
2018-06-12 18:22:38 GMT 54.316654 -2.986776 19,375 149 344 -25380
2018-06-12 18:22:27 GMT 54.330956 -3.001339 19,725 150 396 21660
2018-06-12 18:22:16 GMT 54.348022 -3.018136 20,075 149 348 -1560
2018-06-12 18:22:06 GMT 54.361980 -3.032011 20,425 149 371 -1080
2018-06-12 18:21:55 GMT 54.378304 -3.048443 20,725 150 377 -17100
2018-06-12 18:21:44 GMT 54.393990 -3.063602 21,150 150 354 12780
2018-06-12 18:21:33 GMT 54.409737 -3.078784 21,525 149 389 0
2018-06-12 18:21:23 GMT 54.425312 -3.094304 21,650 150 389 -660
2018-06-12 18:21:13 GMT 54.440903 -3.109769 21,850 151 359 -4140
2018-06-12 18:21:03 GMT 54.455509 -3.123507 22,000 151 380 2100
2018-06-12 18:20:53 GMT 54.470989 -3.137991 22,200 150 373 -780
2018-06-12 18:20:41 GMT 54.488770 -3.154637 22,400 149 379 -540
2018-06-12 18:20:31 GMT 54.503922 -3.169925 22,600 150 371 -2100
2018-06-12 18:20:21 GMT 54.518921 -3.184420 22,725 151 392 -1500
2018-06-12 18:20:11 GMT 54.534847 -3.199504 22,900 150 351 -540
2018-06-12 18:20:01 GMT 54.550392 -3.214769 23,050 150 366 -600
2018-06-12 18:19:49 GMT 54.568104 -3.232092 23,275 149 353 -600
2018-06-12 18:19:36 GMT 54.586430 -3.250598 23,475 152 392 -720
2018-06-12 18:19:26 GMT 54.601662 -3.265074 23,625 148 378 -900
2018-06-12 18:19:13 GMT 54.621429 -3.286662 23,825 149 360 -600
2018-06-12 18:19:03 GMT 54.635883 -3.301118 23,950 148 363 -720
2018-06-12 18:18:53 GMT 54.649456 -3.313939 24,150 146 377 0
2018-06-12 18:18:43 GMT 54.664772 -3.330920 24,250 149 346 -600
2018-06-12 18:18:33 GMT 54.678738 -3.345413 24,375 149 366 -420
2018-06-12 18:18:23 GMT 54.693363 -3.360198 24,450 149 358 -480
2018-06-12 18:18:13 GMT 54.707600 -3.374974 24,525 151 366 -360
2018-06-12 18:18:02 GMT 54.724434 -3.391388 24,625 149 368 -300
2018-06-12 18:17:52 GMT 54.739132 -3.406297 24,700 150 366 -720
2018-06-12 18:17:41 GMT 54.755348 -3.422246 24,800 149 382 -720
2018-06-12 18:17:29 GMT 54.773766 -3.440736 24,975 148 368 0
2018-06-12 18:17:17 GMT 54.791019 -3.458557 25,000 148 367 0
2018-06-12 18:17:05 GMT 54.809612 -3.477716 25,000 148 350 0
2018-06-12 18:16:55 GMT 54.823910 -3.493275 25,000 149 377 0
2018-06-12 18:16:43 GMT 54.842136 -3.512194 25,000 148 364 0
2018-06-12 18:16:33 GMT 54.856529 -3.527513 25,000 149 384 0
2018-06-12 18:16:22 GMT 54.872326 -3.544114 25,000 152 335 0
2018-06-12 18:16:11 GMT 54.888889 -3.561610 25,000 148 369 0
2018-06-12 18:16:01 GMT 54.903435 -3.577247 24,750 147 383 0
2018-06-12 18:15:51 GMT 54.918480 -3.593674 25,000 147 364 0
2018-06-12 18:15:41 GMT 54.932896 -3.609164 25,000 147 359 0
2018-06-12 18:15:31 GMT 54.946865 -3.624931 25,000 148 388 0
2018-06-12 18:15:21 GMT 54.962345 -3.642267 25,000 146 363 0
2018-06-12 18:15:11 GMT 54.976170 -3.658629 25,000 146 376 -60
2018-06-12 18:15:01 GMT 54.990707 -3.675415 25,000 147 355 -120
2018-06-12 18:14:51 GMT 55.005852 -3.694308 25,025 152 332 180
2018-06-12 18:14:41 GMT 55.019463 -3.706766 25,025 156 337 60
2018-06-12 18:14:31 GMT 55.034031 -3.718456 25,000 165 363 -60
2018-06-12 18:14:20 GMT 55.051682 -3.726469 25,000 168 363 0
2018-06-12 18:14:07 GMT 55.072308 -3.733427 25,000 168 391 0
2018-06-12 18:13:57 GMT 55.090103 -3.739552 25,000 167 355 0
2018-06-12 18:13:47 GMT 55.106487 -3.745919 25,000 168 351 0
2018-06-12 18:13:37 GMT 55.121326 -3.750723 25,000 168 384 0
2018-06-12 18:13:25 GMT 55.142056 -3.758369 25,000 169 359 0
2018-06-12 18:13:13 GMT 55.161221 -3.764836 25,000 168 351 0
2018-06-12 18:13:03 GMT 55.177143 -3.770510 25,000 168 374 0
2018-06-12 18:12:52 GMT 55.195805 -3.777179 25,000 170 352 0
2018-06-12 18:12:42 GMT 55.211834 -3.782626 25,000 167 363 0
2018-06-12 18:12:32 GMT 55.228004 -3.787767 25,000 168 363 0
2018-06-12 18:12:20 GMT 55.247597 -3.795363 25,000 169 363 0
2018-06-12 18:12:09 GMT 55.266026 -3.801705 25,000 170 346 0
2018-06-12 18:11:58 GMT 55.282578 -3.807024 25,000 175 390 0
2018-06-12 18:11:46 GMT 55.302402 -3.809027 25,000 181 390 0
2018-06-12 18:11:34 GMT 55.322937 -3.807646 25,000 182 377 0
2018-06-12 18:11:24 GMT 55.340019 -3.806380 25,000 182 357 0
2018-06-12 18:11:14 GMT 55.356628 -3.804388 25,000 181 359 0
2018-06-12 18:11:04 GMT 55.372452 -3.803478 25,000 183 358 0
2018-06-12 18:10:52 GMT 55.392342 -3.801602 25,000 184 370 0
2018-06-12 18:10:41 GMT 55.410946 -3.799958 25,000 183 362 0
2018-06-12 18:10:29 GMT 55.431053 -3.797814 25,000 182 346 0
2018-06-12 18:10:18 GMT 55.448971 -3.796372 25,000 183 349 0
2018-06-12 18:10:08 GMT 55.465633 -3.794473 25,000 182 356 0
2018-06-12 18:09:58 GMT 55.482109 -3.793448 25,000 182 339 0
2018-06-12 18:09:46 GMT 55.500942 -3.791921 25,000 183 382 0
2018-06-12 18:09:35 GMT 55.519669 -3.789957 25,000 183 350 0
2018-06-12 18:09:25 GMT 55.535873 -3.788126 25,000 183 382 0
2018-06-12 18:09:14 GMT 55.555290 -3.786315 25,000 182 322 0
2018-06-12 18:09:03 GMT 55.573078 -3.784827 25,000 184 365 0
2018-06-12 18:08:52 GMT 55.587696 -3.779824 25,000 177 435 0
2018-06-12 18:08:39 GMT 55.612514 -3.780922 25,000 185 355 0
2018-06-12 18:08:29 GMT 55.629925 -3.778768 25,000 183 364 0
2018-06-12 18:08:17 GMT 55.650143 -3.776798 25,000 179 340 0
2018-06-12 18:08:07 GMT 55.666283 -3.776732 25,000 185 347 0
2018-06-12 18:07:55 GMT 55.686131 -3.775671 25,000 183 366 0
2018-06-12 18:07:18 GMT 55.749054 -3.768592 25,000 184 357 0
2018-06-12 18:07:06 GMT 55.768837 -3.765961 25,000 183 367 0
2018-06-12 18:06:51 GMT 55.794575 -3.763597 25,000 182 360 0
2018-06-12 18:06:16 GMT 55.853622 -3.757654 25,000 181 357 0
2018-06-12 18:06:06 GMT 55.870159 -3.756660 25,000 184 395 1280
We lost coverage of the aircraft here for a total of 9 minutes
2018-06-12 17:57:03 GMT 56.573303 -3.174963 21,625 220 278 1280
2018-06-12 17:56:57 GMT 56.579403 -3.166208 21,450 220 278 1280
2018-06-12 17:56:50 GMT 56.585587 -3.157571 21,325 220 278 1280
2018-06-12 17:56:35 GMT 56.603100 -3.131990 21,150 220 278 1280
2018-06-12 17:56:24 GMT 56.611012 -3.117725 20,900 220 278 1280
2018-06-12 17:56:16 GMT 56.618881 -3.105587 20,775 220 278 1280
2018-06-12 17:56:04 GMT 56.628284 -3.092031 20,550 220 278 1280
2018-06-12 17:55:59 GMT 56.635918 -3.081576 20,250 220 278 1280
2018-06-12 17:55:37 GMT 56.655098 -3.055085 19,825 221 280 1280
2018-06-12 17:55:28 GMT 56.667015 -3.037188 19,575 221 282 1280
2018-06-12 17:55:12 GMT 56.680515 -3.015658 19,525 220 279 1216
2018-06-12 17:55:06 GMT 56.689777 -3.000419 19,075 220 279 1216
2018-06-12 17:54:55 GMT 56.696716 -2.989699 19,100 220 266 1408
2018-06-12 17:54:46 GMT 56.713287 -2.964005 18,925 220 266 1408
2018-06-12 17:54:32 GMT 56.730186 -2.939020 18,725 220 266 1408
2018-06-12 17:54:20 GMT 56.736610 -2.930071 18,525 220 266 1408
2018-06-12 17:54:08 GMT 56.747688 -2.913681 18,300 220 266 1408
2018-06-12 17:54:03 GMT 56.752811 -2.906415 18,050 220 266 1408
2018-06-12 17:53:53 GMT 56.761795 -2.893214 17,800 220 266 1408
2018-06-12 17:53:42 GMT 56.773106 -2.876469 17,550 220 266 1408
2018-06-12 17:53:32 GMT 56.784698 -2.858394 17,250 220 266 1408
2018-06-12 17:53:22 GMT 56.791588 -2.847940 17,025 220 266 1408
2018-06-12 17:53:13 GMT 56.799175 -2.836422 16,850 220 266 1408
2018-06-12 17:53:01 GMT 56.816120 -2.810817 16,600 220 266 1408
2018-06-12 17:52:53 GMT 56.819984 -2.804437 16,325 220 266 1408
2018-06-12 17:52:35 GMT 56.843914 -2.767757 15,800 220 266 1408
2018-06-12 17:52:21 GMT 56.852806 -2.754733 15,575 220 266 1408
2018-06-12 17:52:07 GMT 56.864208 -2.737633 15,325 220 265 1536
2018-06-12 17:52:03 GMT 56.869003 -2.731166 15,075 220 268 1664
2018-06-12 17:51:49 GMT 56.890793 -2.698030 14,825 221 270 1792
2018-06-12 17:51:35 GMT 56.892887 -2.695194 14,575 221 262 1536
2018-06-12 17:51:30 GMT 56.901501 -2.681904 14,250 221 262 1536
2018-06-12 17:51:22 GMT 56.908108 -2.671538 13,950 221 262 1536
2018-06-12 17:51:06 GMT 56.933201 -2.631226 13,725 221 262 1536
2018-06-12 17:50:59 GMT 56.934086 -2.629808 13,400 220 263 1536
2018-06-12 17:50:41 GMT 56.953499 -2.600570 12,800 220 247 2112
2018-06-12 17:50:22 GMT 56.964809 -2.581876 12,525 220 247 2112
2018-06-12 17:50:19 GMT 56.968998 -2.574876 12,250 220 247 2112
2018-06-12 17:50:09 GMT 56.976913 -2.563004 12,050 220 247 2112
2018-06-12 17:49:40 GMT 57.004192 -2.523843 11,000 221 248 2112
2018-06-12 17:49:24 GMT 57.017693 -2.505237 10,700 221 248 2112
2018-06-12 17:49:15 GMT 57.023884 -2.496023 10,275 224 239 2112
2018-06-12 17:49:05 GMT 57.033009 -2.484062 9,950 224 239 2112
2018-06-12 17:48:56 GMT 57.042503 -2.472810 9,550 232 223 1792
2018-06-12 17:48:45 GMT 57.052422 -2.457659 9,200 232 223 1792
2018-06-12 17:48:37 GMT 57.058891 -2.447559 8,850 232 223 1792
2018-06-12 17:48:24 GMT 57.068993 -2.428333 8,525 232 223 1792
2018-06-12 17:48:11 GMT 57.081703 -2.405031 8,100 236 217 1920
2018-06-12 17:47:56 GMT 57.091896 -2.382616 7,425 239 213 2624
2018-06-12 17:47:44 GMT 57.097111 -2.370300 7,100 239 213 2624
2018-06-12 17:47:36 GMT 57.102882 -2.355416 6,925 239 213 2624
2018-06-12 17:47:25 GMT 57.108097 -2.342214 6,625 240 212 2688
2018-06-12 17:47:15 GMT 57.113914 -2.328304 6,175 242 214 2688
2018-06-12 17:47:00 GMT 57.122902 -2.305534 5,775 247 222 2624
2018-06-12 17:46:50 GMT 57.127697 -2.291713 5,325 250 228 2496
2018-06-12 17:46:37 GMT 57.133282 -2.268411 3,900 253 245 2368

Making use of Plane Finder data

You are free to use the raw flight data, aircraft information and images provided in this report for your own purposes provided the data is correctly attributed to Plane Finder. We ask that you please credit Plane Finder and link to planefinder.net in close proximity to the content.

Optionally one of the following logos (no smaller then 150x24px) can be used and must link to planefinder.net

Embedding the Plane Finder map

You are welcome to embed the Plane Finder playback map on your website to offer visitors a more interactive experience. We suggest using the following HTML code:

<iframe src="//planefinder.net/data/report/BE1044-G-FLBD-7700-squawk-2018-06-12/map" width="800" height="600" seamless="seamless"></iframe>

Where our data comes from

Plane Finder has a global network of data feeds and antenna radars that receive data broadcast directly from aircraft. The primary technologies used are ADS-B and MLAT. We also show feeds from the FAA and a FLARM glider feed.

Click here to find out more about the Plane Finder network.

How we collect our data